createdAt,value
2023-05-01T00:00:27.874Z,99712.69
2023-05-01T00:02:54.857Z,99717.97
2023-05-01T00:05:23.178Z,99708.16
2023-05-01T00:07:53.754Z,99712.63
2023-05-01T00:10:24.348Z,99709.22
2023-05-01T00:12:51.197Z,99703.97
2023-05-01T00:15:18.457Z,99702.88
2023-05-01T00:17:45.254Z,99707.63
2023-05-01T00:20:12.388Z,99703.09
2023-05-01T00:22:39.904Z,99700.25
2023-05-01T00:25:07.100Z,99698.91
2023-05-01T00:27:33.998Z,99697.06
2023-05-01T00:30:01.784Z,99695.28
2023-05-01T00:32:28.675Z,99695.06
2023-05-01T00:34:57.915Z,99692.44
2023-05-01T00:37:24.760Z,99693.47
2023-05-01T00:40:17.020Z,99692.00
2023-05-01T00:43:08.620Z,99690.47
2023-05-01T00:45:35.989Z,99691.56
2023-05-01T00:48:03.432Z,99686.06
2023-05-01T00:50:32.574Z,99684.22
2023-05-01T00:52:59.605Z,99685.50
2023-05-01T00:55:32.724Z,99694.72
2023-05-01T00:58:01.884Z,99684.59
2023-05-01T01:00:29.452Z,99678.56
2023-05-01T01:02:58.521Z,99683.50
2023-05-01T01:05:30.842Z,99674.53
2023-05-01T01:08:23.968Z,99689.13
2023-05-01T01:10:56.369Z,99687.31
2023-05-01T01:13:37.213Z,99689.06
2023-05-01T01:19:28.872Z,99680.94
2023-05-01T01:22:08.235Z,99680.69
2023-05-01T01:24:59.940Z,99682.25
2023-05-01T01:27:51.939Z,99675.41
2023-05-01T01:30:32.859Z,99672.25
2023-05-01T01:33:09.488Z,99674.31
2023-05-01T01:35:42.974Z,99667.38
2023-05-01T01:38:17.560Z,99673.72
2023-05-01T01:40:59.897Z,99668.53
2023-05-01T01:43:33.046Z,99664.63
2023-05-01T01:46:04.508Z,99662.81
2023-05-01T01:48:43.737Z,99664.19
2023-05-01T01:51:16.415Z,99666.34
2023-05-01T01:54:13.276Z,99669.81
2023-05-01T01:56:42.636Z,99654.63
2023-05-01T01:59:11.344Z,99663.00
2023-05-01T02:01:41.295Z,99654.66
2023-05-01T02:04:34.653Z,99663.38
2023-05-01T02:07:04.735Z,99664.94
2023-05-01T02:09:32.423Z,99662.06
2023-05-01T02:12:06.922Z,99662.22
2023-05-01T02:14:35.168Z,99668.06
2023-05-01T02:17:03.629Z,99656.56
2023-05-01T02:19:34.865Z,99646.84
2023-05-01T02:22:04.453Z,99644.22
2023-05-01T02:24:36.831Z,99644.50
2023-05-01T02:27:11.351Z,99643.97
2023-05-01T02:29:38.895Z,99644.22
2023-05-01T02:32:06.982Z,99638.47
2023-05-01T02:34:37.205Z,99632.72
2023-05-01T02:37:07.854Z,99628.56
2023-05-01T02:39:35.598Z,99626.75
2023-05-01T02:42:04.066Z,99630.38
2023-05-01T02:44:41.779Z,99627.47
2023-05-01T02:47:14.788Z,99624.06
2023-05-01T02:49:42.030Z,99625.88
2023-05-01T02:52:10.354Z,99624.03
2023-05-01T02:54:39.009Z,99617.47
2023-05-01T02:57:07.473Z,99622.53
2023-05-01T02:59:36.672Z,99623.09
2023-05-01T03:02:04.093Z,99623.91
2023-05-01T03:04:31.043Z,99632.56
2023-05-01T03:06:58.244Z,99625.25
2023-05-01T03:09:26.460Z,99616.88
2023-05-01T03:11:54.826Z,99617.94
2023-05-01T03:14:21.584Z,99616.91
2023-05-01T03:16:49.989Z,99612.69
2023-05-01T03:19:17.948Z,99617.69
2023-05-01T03:21:45.457Z,99621.91
2023-05-01T03:27:04.875Z,99614.31
2023-05-01T03:29:31.733Z,99623.75
2023-05-01T03:31:59.171Z,99618.00
2023-05-01T03:34:26.262Z,99620.91
2023-05-01T03:36:55.763Z,99620.91
2023-05-01T03:39:24.292Z,99624.06
2023-05-01T03:42:11.737Z,99617.53
2023-05-01T03:44:41.699Z,99616.75
2023-05-01T03:47:08.745Z,99620.16
2023-05-01T03:49:40.245Z,99616.25
2023-05-01T03:52:07.407Z,99616.78
2023-05-01T03:54:35.934Z,99617.06
2023-05-01T03:57:24.876Z,99618.59
2023-05-01T03:59:52.558Z,99616.78
2023-05-01T04:02:24.906Z,99618.59
2023-05-01T04:05:16.783Z,99618.63
2023-05-01T04:07:50.070Z,99623.59
2023-05-01T04:10:17.603Z,99617.06
2023-05-01T04:12:52.601Z,99619.69
2023-05-01T04:15:21.430Z,99620.72
2023-05-01T04:17:48.947Z,99616.00
2023-05-01T04:20:17.943Z,99615.47
2023-05-01T04:22:44.997Z,99609.44
2023-05-01T04:25:11.821Z,99616.53
2023-05-01T04:27:39.131Z,99612.06
2023-05-01T04:30:06.401Z,99607.88
2023-05-01T04:32:36.454Z,99609.69
2023-05-01T04:35:04.300Z,99616.22
2023-05-01T04:37:31.448Z,99611.53
2023-05-01T04:39:58.641Z,99626.16
2023-05-01T04:42:33.764Z,99614.41
2023-05-01T04:45:00.836Z,99621.25
2023-05-01T04:47:28.056Z,99620.47
2023-05-01T04:49:55.232Z,99619.66
2023-05-01T04:52:22.230Z,99620.44
2023-05-01T04:54:54.102Z,99614.41
2023-05-01T04:57:24.878Z,99620.91
2023-05-01T04:59:52.869Z,99606.47
2023-05-01T05:02:19.862Z,99611.19
2023-05-01T05:05:12.921Z,99610.63
2023-05-01T05:07:41.405Z,99606.38
2023-05-01T05:10:27.253Z,99616.31
2023-05-01T05:13:14.341Z,99618.63
2023-05-01T05:15:43.013Z,99610.19
2023-05-01T05:18:12.177Z,99613.88
2023-05-01T05:20:39.331Z,99627.47
2023-05-01T05:23:07.833Z,99618.00
2023-05-01T05:25:35.902Z,99620.88
2023-05-01T05:28:04.440Z,99622.13
2023-05-01T05:30:32.927Z,99618.69
2023-05-01T05:33:01.001Z,99619.38
2023-05-01T05:35:28.001Z,99625.66
2023-05-01T05:37:55.359Z,99623.75
2023-05-01T05:40:23.599Z,99627.84
2023-05-01T05:42:57.517Z,99623.06
2023-05-01T05:45:27.694Z,99626.16
2023-05-01T05:47:54.727Z,99625.81
2023-05-01T05:50:22.863Z,99623.94
2023-05-01T05:52:49.617Z,99618.41
2023-05-01T05:55:20.948Z,99615.78
2023-05-01T05:58:05.079Z,99614.97
2023-05-01T06:00:32.265Z,99621.72
2023-05-01T06:03:04.355Z,99621.41
2023-05-01T06:05:34.012Z,99617.91
2023-05-01T06:08:00.945Z,99617.50
2023-05-01T06:10:29.513Z,99610.84
2023-05-01T06:15:50.064Z,99608.44
2023-05-01T06:18:17.127Z,99599.34
2023-05-01T06:20:48.288Z,99608.69
2023-05-01T06:23:15.563Z,99611.22
2023-05-01T06:25:50.669Z,99615.38
2023-05-01T06:28:18.875Z,99616.34
2023-05-01T06:30:46.381Z,99612.09
2023-05-01T06:33:13.676Z,99617.47
2023-05-01T06:35:43.365Z,99617.63
2023-05-01T06:38:10.207Z,99613.28
2023-05-01T06:40:37.693Z,99615.53
2023-05-01T06:43:08.697Z,99609.34
2023-05-01T06:45:36.976Z,99606.56
2023-05-01T06:48:04.709Z,99606.97
2023-05-01T06:50:31.501Z,99614.22
2023-05-01T06:53:00.931Z,99613.06
2023-05-01T06:55:27.702Z,99602.66
2023-05-01T06:57:55.542Z,99609.91
2023-05-01T07:00:22.466Z,99609.72
2023-05-01T07:03:13.898Z,99609.03
2023-05-01T07:05:40.862Z,99607.88
2023-05-01T07:08:08.288Z,99610.72
2023-05-01T07:10:35.455Z,99608.47
2023-05-01T07:13:02.268Z,99613.63
2023-05-01T07:15:30.976Z,99610.69
2023-05-01T07:17:57.762Z,99607.97
2023-05-01T07:20:24.621Z,99606.28
2023-05-01T07:22:51.519Z,99609.63
2023-05-01T07:25:19.509Z,99600.13
2023-05-01T07:27:46.964Z,99611.19
2023-05-01T07:30:14.341Z,99608.44
2023-05-01T07:32:41.373Z,99597.31
2023-05-01T07:35:09.984Z,99612.72
2023-05-01T07:37:36.931Z,99607.81
2023-05-01T07:40:03.890Z,99605.06
2023-05-01T07:45:22.292Z,99597.81
2023-05-01T07:47:49.067Z,99591.63
2023-05-01T07:50:17.510Z,99591.13
2023-05-01T07:52:44.458Z,99589.13
2023-05-01T07:55:12.372Z,99584.25
2023-05-01T07:57:41.025Z,99586.47
2023-05-01T08:00:11.849Z,99582.81
2023-05-01T08:02:41.365Z,99583.94
2023-05-01T08:05:09.956Z,99583.53
2023-05-01T08:07:36.732Z,99579.81
2023-05-01T08:10:04.096Z,99585.63
2023-05-01T08:12:31.140Z,99582.44
2023-05-01T08:15:24.337Z,99579.53
2023-05-01T08:17:51.406Z,99571.94
2023-05-01T08:20:18.379Z,99579.75
2023-05-01T08:22:45.410Z,99563.91
2023-05-01T08:25:12.120Z,99573.28
2023-05-01T08:27:40.163Z,99572.81
2023-05-01T08:30:07.629Z,99567.84
2023-05-01T08:32:36.523Z,99567.22
2023-05-01T08:35:03.945Z,99572.06
2023-05-01T08:37:30.701Z,99571.94
2023-05-01T08:39:57.693Z,99560.59
2023-05-01T08:42:32.132Z,99556.25
2023-05-01T08:45:01.244Z,99565.72
2023-05-01T08:47:29.264Z,99563.22
2023-05-01T08:52:51.460Z,99556.88
2023-05-01T08:55:21.014Z,99549.22
2023-05-01T08:57:49.562Z,99545.31
2023-05-01T09:00:21.993Z,99544.97
2023-05-01T09:02:51.059Z,99533.91
2023-05-01T09:05:19.569Z,99530.44
2023-05-01T09:07:47.690Z,99527.78
2023-05-01T09:10:18.557Z,99522.44
2023-05-01T09:12:54.923Z,99518.78
2023-05-01T09:15:23.981Z,99517.97
2023-05-01T09:17:50.972Z,99517.16
2023-05-01T09:20:19.766Z,99516.78
2023-05-01T09:22:47.992Z,99512.84
2023-05-01T09:25:14.724Z,99505.59
2023-05-01T09:27:42.512Z,99504.31
2023-05-01T09:30:10.057Z,99508.78
2023-05-01T09:32:37.407Z,99497.88
2023-05-01T09:35:10.614Z,99495.66
2023-05-01T09:37:39.042Z,99498.91
2023-05-01T09:40:14.995Z,99497.44
2023-05-01T09:42:53.340Z,99496.94
2023-05-01T09:45:20.713Z,99497.19
2023-05-01T09:47:48.402Z,99492.13
2023-05-01T09:50:30.853Z,99496.38
2023-05-01T09:52:58.079Z,99493.50
2023-05-01T09:55:25.779Z,99477.09
2023-05-01T09:57:53.741Z,99481.22
2023-05-01T10:00:20.621Z,99484.88
2023-05-01T10:02:51.103Z,99486.09
2023-05-01T10:05:18.995Z,99478.91
2023-05-01T10:08:01.019Z,99477.13
2023-05-01T10:10:29.714Z,99470.19
2023-05-01T10:12:56.526Z,99466.88
2023-05-01T10:15:37.066Z,99468.97
2023-05-01T10:18:04.800Z,99474.84
2023-05-01T10:20:33.032Z,99471.53
2023-05-01T10:23:00.825Z,99466.66
2023-05-01T10:25:29.685Z,99470.31
2023-05-01T10:27:59.124Z,99465.09
2023-05-01T10:30:26.633Z,99462.47
2023-05-01T10:32:53.627Z,99458.00
2023-05-01T10:35:26.177Z,99458.53
2023-05-01T10:38:02.347Z,99453.34
2023-05-01T10:40:44.784Z,99445.81
2023-05-01T10:43:26.960Z,99452.56
2023-05-01T10:46:12.418Z,99442.47
2023-05-01T10:48:41.101Z,99445.25
2023-05-01T10:51:09.720Z,99439.59
2023-05-01T10:53:36.916Z,99435.84
2023-05-01T10:56:06.053Z,99427.63
2023-05-01T10:58:37.281Z,99432.91
2023-05-01T11:01:31.195Z,99421.25
2023-05-01T11:04:20.449Z,99422.00
2023-05-01T11:07:03.472Z,99426.34
2023-05-01T11:09:42.162Z,99415.69
2023-05-01T11:12:11.964Z,99405.47
2023-05-01T11:14:54.744Z,99410.88
2023-05-01T11:17:40.155Z,99413.22
2023-05-01T11:20:12.396Z,99402.69
2023-05-01T11:22:40.916Z,99399.00
2023-05-01T11:25:22.489Z,99401.16
2023-05-01T11:27:53.986Z,99394.22
2023-05-01T11:30:22.320Z,99387.41
2023-05-01T11:32:52.816Z,99387.84
2023-05-01T11:35:23.044Z,99389.16
2023-05-01T11:37:51.045Z,99393.78
2023-05-01T11:40:30.138Z,99387.00
2023-05-01T11:43:05.139Z,99385.88
2023-05-01T11:45:38.933Z,99376.22
2023-05-01T11:48:15.460Z,99381.34
2023-05-01T11:50:47.083Z,99363.84
2023-05-01T11:53:16.142Z,99369.25
2023-05-01T11:55:43.953Z,99361.94
2023-05-01T11:58:12.441Z,99364.69
2023-05-01T12:00:41.427Z,99363.91
2023-05-01T12:03:14.580Z,99364.16
2023-05-01T12:05:43.931Z,99345.38
2023-05-01T12:08:17.534Z,99369.22
2023-05-01T12:10:46.430Z,99365.72
2023-05-01T12:13:14.676Z,99359.88
2023-05-01T12:15:47.203Z,99354.22
2023-05-01T12:18:16.039Z,99353.09
2023-05-01T12:20:43.798Z,99355.84
2023-05-01T12:23:13.471Z,99344.88
2023-05-01T12:25:41.151Z,99338.34
2023-05-01T12:28:15.925Z,99342.13
2023-05-01T12:30:44.610Z,99337.97
2023-05-01T12:33:20.748Z,99342.22
2023-05-01T12:35:50.085Z,99340.41
2023-05-01T12:38:22.073Z,99339.28
2023-05-01T12:40:57.252Z,99349.41
2023-05-01T12:43:33.506Z,99331.81
2023-05-01T12:46:03.132Z,99336.28
2023-05-01T12:48:32.776Z,99328.66
2023-05-01T12:51:03.011Z,99330.19
2023-05-01T12:53:30.477Z,99331.72
2023-05-01T12:56:24.397Z,99317.56
2023-05-01T12:58:54.272Z,99316.69
2023-05-01T13:01:47.102Z,99310.94
2023-05-01T13:04:21.773Z,99313.69
2023-05-01T13:06:54.153Z,99302.38
2023-05-01T13:09:25.812Z,99296.34
2023-05-01T13:12:01.893Z,99291.47
2023-05-01T13:14:35.458Z,99285.38
2023-05-01T13:17:02.606Z,99289.91
2023-05-01T13:19:29.804Z,99282.38
2023-05-01T13:21:58.343Z,99285.47
2023-05-01T13:24:37.033Z,99279.44
2023-05-01T13:30:01.275Z,99280.56
2023-05-01T13:32:32.091Z,99271.88
2023-05-01T13:35:02.802Z,99278.66
2023-05-01T13:37:29.769Z,99270.69
2023-05-01T13:39:57.708Z,99268.78
2023-05-01T13:42:25.610Z,99266.94
2023-05-01T13:44:54.403Z,99254.81
2023-05-01T13:47:23.718Z,99256.31
2023-05-01T13:49:50.506Z,99248.81
2023-05-01T13:52:20.901Z,99239.94
2023-05-01T13:54:48.778Z,99242.03
2023-05-01T13:57:18.271Z,99245.97
2023-05-01T13:59:47.116Z,99244.28
2023-05-01T14:02:31.950Z,99240.44
2023-05-01T14:05:00.867Z,99231.97
2023-05-01T14:07:28.283Z,99242.53
2023-05-01T14:09:59.142Z,99227.25
2023-05-01T14:15:23.037Z,99221.06
2023-05-01T14:17:50.658Z,99221.50
2023-05-01T14:20:17.481Z,99217.66
2023-05-01T14:22:48.098Z,99212.25
2023-05-01T14:25:24.084Z,99206.66
2023-05-01T14:27:55.940Z,99216.13
2023-05-01T14:30:27.094Z,99200.91
2023-05-01T14:32:58.202Z,99203.91
2023-05-01T14:35:25.095Z,99188.56
2023-05-01T14:37:53.080Z,99215.13
2023-05-01T14:40:26.460Z,99197.97
2023-05-01T14:42:56.072Z,99191.94
2023-05-01T14:45:23.378Z,99185.41
2023-05-01T14:47:50.908Z,99187.66
2023-05-01T14:50:23.328Z,99189.97
2023-05-01T14:52:55.069Z,99192.13
2023-05-01T14:55:27.595Z,99183.44
2023-05-01T14:57:57.453Z,99187.66
2023-05-01T15:00:24.917Z,99185.78
2023-05-01T15:02:52.418Z,99188.00
2023-05-01T15:05:21.045Z,99179.25
2023-05-01T15:07:47.799Z,99191.03
2023-05-01T15:10:14.598Z,99186.41
2023-05-01T15:12:41.486Z,99180.63
2023-05-01T15:15:08.988Z,99195.59
2023-05-01T15:17:38.058Z,99185.63
2023-05-01T15:20:06.074Z,99187.88
2023-05-01T15:22:33.032Z,99185.91
2023-05-01T15:25:00.116Z,99182.84
2023-05-01T15:27:29.950Z,99188.50
2023-05-01T15:29:56.653Z,99180.03
2023-05-01T15:32:24.267Z,99181.50
2023-05-01T15:34:51.892Z,99181.50
2023-05-01T15:37:19.412Z,99181.56
2023-05-01T15:39:54.076Z,99184.22
2023-05-01T15:42:46.049Z,99173.13
2023-05-01T15:45:14.305Z,99178.13
2023-05-01T15:47:41.086Z,99168.59
2023-05-01T15:50:10.415Z,99172.38
2023-05-01T15:52:37.234Z,99171.19
2023-05-01T15:55:07.697Z,99168.47
2023-05-01T15:57:35.972Z,99166.13
2023-05-01T16:00:03.969Z,99163.47
2023-05-01T16:02:32.161Z,99163.06
2023-05-01T16:05:00.912Z,99161.94
2023-05-01T16:07:29.824Z,99161.09
2023-05-01T16:09:57.906Z,99159.22
2023-05-01T16:12:28.403Z,99169.50
2023-05-01T16:14:55.284Z,99165.72
2023-05-01T16:17:25.393Z,99166.50
2023-05-01T16:19:52.952Z,99162.63
2023-05-01T16:22:20.497Z,99158.34
2023-05-01T16:24:47.981Z,99161.34
2023-05-01T16:27:18.037Z,99160.56
2023-05-01T16:29:45.490Z,99162.81
2023-05-01T16:32:14.025Z,99161.97
2023-05-01T16:34:41.076Z,99162.66
2023-05-01T16:37:07.909Z,99162.25
2023-05-01T16:39:36.824Z,99162.94
2023-05-01T16:42:03.900Z,99162.44
2023-05-01T16:44:30.892Z,99156.19
2023-05-01T16:46:58.751Z,99157.31
2023-05-01T16:49:31.001Z,99170.19
2023-05-01T16:51:57.885Z,99161.03
2023-05-01T16:54:27.417Z,99168.94
2023-05-01T16:56:54.272Z,99163.53
2023-05-01T16:59:22.517Z,99160.88
2023-05-01T17:01:49.288Z,99161.97
2023-05-01T17:04:17.134Z,99161.13
2023-05-01T17:06:44.111Z,99164.47
2023-05-01T17:09:15.017Z,99157.97
2023-05-01T17:11:55.270Z,99163.22
2023-05-01T17:14:23.851Z,99162.00
2023-05-01T17:16:50.880Z,99164.22
2023-05-01T17:19:20.073Z,99171.34
2023-05-01T17:22:12.106Z,99166.31
2023-05-01T17:24:40.194Z,99167.44
2023-05-01T17:27:07.520Z,99157.91
2023-05-01T17:32:36.372Z,99167.69
2023-05-01T17:35:05.606Z,99163.41
2023-05-01T17:37:34.231Z,99172.84
2023-05-01T17:40:03.209Z,99164.16
2023-05-01T17:42:30.971Z,99164.00
2023-05-01T17:45:23.933Z,99160.91
2023-05-01T17:47:51.029Z,99160.50
2023-05-01T17:53:34.373Z,99169.50
2023-05-01T17:56:04.440Z,99167.94
2023-05-01T17:58:32.282Z,99168.59
2023-05-01T18:01:03.436Z,99163.88
2023-05-01T18:03:30.796Z,99166.34
2023-05-01T18:05:58.953Z,99174.22
2023-05-01T18:08:31.781Z,99169.94
2023-05-01T18:10:59.163Z,99172.50
2023-05-01T18:13:30.519Z,99174.41
2023-05-01T18:15:57.917Z,99174.66
2023-05-01T18:18:25.448Z,99177.22
2023-05-01T18:20:53.515Z,99177.13
2023-05-01T18:23:21.546Z,99176.78
2023-05-01T18:25:49.483Z,99173.69
2023-05-01T18:28:17.464Z,99173.59
2023-05-01T18:30:48.524Z,99167.84
2023-05-01T18:33:20.426Z,99175.38
2023-05-01T18:35:48.100Z,99174.53
2023-05-01T18:38:16.295Z,99174.53
2023-05-01T18:40:43.517Z,99181.97
2023-05-01T18:43:12.285Z,99184.63
2023-05-01T18:45:40.110Z,99188.72
2023-05-01T18:48:10.377Z,99186.06
2023-05-01T18:50:37.668Z,99198.03
2023-05-01T18:53:05.157Z,99196.50
2023-05-01T18:55:32.557Z,99204.00
2023-05-01T18:58:03.247Z,99208.91
2023-05-01T19:00:30.669Z,99204.38
2023-05-01T19:02:58.634Z,99208.44
2023-05-01T19:05:26.016Z,99205.69
2023-05-01T19:10:38.474Z,99214.78
2023-05-01T19:13:06.995Z,99213.16
2023-05-01T19:15:36.223Z,99210.03
2023-05-01T19:18:07.465Z,99219.22
2023-05-01T19:20:36.066Z,99214.47
2023-05-01T19:23:04.142Z,99216.78
2023-05-01T19:25:31.470Z,99209.94
2023-05-01T19:28:01.476Z,99210.59
2023-05-01T19:30:28.885Z,99220.34
2023-05-01T19:32:57.951Z,99221.00
2023-05-01T19:35:27.498Z,99214.47
2023-05-01T19:38:01.409Z,99224.34
2023-05-01T19:40:32.981Z,99230.00
2023-05-01T19:43:02.064Z,99230.31
2023-05-01T19:45:29.900Z,99230.00
2023-05-01T19:47:58.392Z,99234.19
2023-05-01T19:50:28.524Z,99230.66
2023-05-01T19:52:57.494Z,99236.59
2023-05-01T19:55:24.955Z,99238.47
2023-05-01T19:57:52.028Z,99230.06
2023-05-01T20:00:22.685Z,99231.63
2023-05-01T20:02:50.872Z,99233.47
2023-05-01T20:05:18.763Z,99238.69
2023-05-01T20:07:45.682Z,99228.41
2023-05-01T20:10:12.642Z,99232.19
2023-05-01T20:12:40.412Z,99237.59
2023-05-01T20:15:08.189Z,99243.34
2023-05-01T20:17:36.942Z,99241.34
2023-05-01T20:20:04.348Z,99241.69
2023-05-01T20:22:32.914Z,99242.13
2023-05-01T20:25:02.047Z,99244.00
2023-05-01T20:27:29.211Z,99245.44
2023-05-01T20:29:57.106Z,99251.75
2023-05-01T20:32:24.404Z,99247.88
2023-05-01T20:34:52.221Z,99251.41
2023-05-01T20:37:19.067Z,99249.75
2023-05-01T20:39:46.941Z,99252.84
2023-05-01T20:42:14.472Z,99256.94
2023-05-01T20:45:07.072Z,99255.19
2023-05-01T20:47:59.473Z,99259.38
2023-05-01T20:50:26.802Z,99254.06
2023-05-01T20:52:54.987Z,99252.53
2023-05-01T20:55:46.747Z,99255.38
2023-05-01T20:58:14.070Z,99256.03
2023-05-01T21:00:42.350Z,99265.75
2023-05-01T21:03:37.165Z,99257.38
2023-05-01T21:06:04.468Z,99260.88
2023-05-01T21:08:31.450Z,99260.66
2023-05-01T21:10:58.474Z,99263.84
2023-05-01T21:13:27.391Z,99266.06
2023-05-01T21:15:55.109Z,99266.28
2023-05-01T21:18:22.571Z,99267.81
2023-05-01T21:20:49.568Z,99269.56
2023-05-01T21:23:17.728Z,99271.09
2023-05-01T21:25:44.671Z,99262.38
2023-05-01T21:28:13.907Z,99262.81
2023-05-01T21:30:44.389Z,99267.69
2023-05-01T21:33:15.844Z,99272.22
2023-05-01T21:35:45.052Z,99276.94
2023-05-01T21:38:14.921Z,99276.16
2023-05-01T21:40:43.123Z,99273.06
2023-05-01T21:43:11.950Z,99275.59
2023-05-01T21:45:43.725Z,99272.94
2023-05-01T21:48:15.402Z,99273.72
2023-05-01T21:50:42.233Z,99269.97
2023-05-01T21:53:09.914Z,99276.69
2023-05-01T21:55:36.687Z,99274.50
2023-05-01T21:58:03.456Z,99277.16
2023-05-01T22:00:30.450Z,99274.50
2023-05-01T22:02:57.723Z,99281.22
2023-05-01T22:05:25.407Z,99275.16
2023-05-01T22:07:52.627Z,99278.75
2023-05-01T22:10:20.252Z,99284.28
2023-05-01T22:12:49.528Z,99274.44
2023-05-01T22:15:17.461Z,99282.28
2023-05-01T22:17:45.046Z,99281.84
2023-05-01T22:20:12.537Z,99278.72
2023-05-01T22:22:40.700Z,99275.28
2023-05-01T22:25:11.560Z,99273.09
2023-05-01T22:27:38.699Z,99279.97
2023-05-01T22:30:06.296Z,99277.31
2023-05-01T22:32:34.580Z,99284.78
2023-05-01T22:35:02.459Z,99278.22
2023-05-01T22:37:31.105Z,99279.03
2023-05-01T22:39:58.127Z,99276.38
2023-05-01T22:42:25.018Z,99279.34
2023-05-01T22:44:53.022Z,99287.28
2023-05-01T22:47:19.782Z,99279.56
2023-05-01T22:49:46.782Z,99285.81
2023-05-01T22:52:13.878Z,99283.16
2023-05-01T22:54:40.803Z,99286.22
2023-05-01T22:57:07.732Z,99282.34
2023-05-01T22:59:38.016Z,99289.69
2023-05-01T23:02:05.080Z,99281.44
2023-05-01T23:04:32.050Z,99281.75
2023-05-01T23:07:01.113Z,99287.69
2023-05-01T23:09:32.238Z,99285.03
2023-05-01T23:12:00.452Z,99281.31
2023-05-01T23:14:27.995Z,99280.72
2023-05-01T23:16:54.804Z,99281.59
2023-05-01T23:19:24.411Z,99290.78
2023-05-01T23:22:05.934Z,99291.88
2023-05-01T23:24:42.587Z,99294.53
2023-05-01T23:27:12.208Z,99303.69
2023-05-01T23:29:40.870Z,99292.63
2023-05-01T23:32:18.964Z,99297.94
2023-05-01T23:34:46.601Z,99297.94
2023-05-01T23:37:17.942Z,99295.94
2023-05-01T23:39:45.377Z,99298.28
2023-05-01T23:42:13.337Z,99295.50
2023-05-01T23:44:40.609Z,99288.31
2023-05-01T23:47:07.774Z,99291.47
2023-05-01T23:49:35.440Z,99294.94
2023-05-01T23:52:02.571Z,99288.59
2023-05-01T23:54:29.335Z,99295.75
2023-05-01T23:56:57.549Z,99291.09
2023-05-01T23:59:24.935Z,99290.00
